KLCK METAR and TAF | Updated Today

KLCK METAR

Rickenbacker International Airport

Observation time: 22 min. ago

KLCK 241955Z AUTO 04005KT 10SM OVC036 23/14 A2997 RMK AO2 T02270137

Need help? Read our tutorial on how to read METARs or read the parsed version below.

Rickenbacker International Airport (KLCK) METAR

  • Weather conditions on Sun, 24 Sep 2023 19:55:00 +0000 (22 min. ago):
  • Present conditions: Dry
  • Clouds: Overcast sky at 1097 meters
  • Visibility: 16093 meters
  • Wind: 40 degrees at 5 knots
  • Temperature: 23 celsius
  • Dew point: 14 celsius
  • Pressure: 29.97 inHg
  • Remarks: AO2 T02270137


Useful to know...

KLCK TAF

Rickenbacker International Airport

KLCK 241739Z 2418/2518 02005KT P6SM BKN025 FM242300 04005KT P6SM BKN035 FM250600 05003KT P6SM BKN025 FM251600 05004KT P6SM BKN035
Observation time: 2:38 hr. ago
Need help? Read our tutorial on how to read TAFs or read the parsed version below.

Parsed version of TAF for Rickenbacker International Airport (KLCK)

  • From 24 September at 18:00 UTC, to day 25 of the month at 18:00 UTC
  • Clouds: Broken sky at 762 meters
  • Wind: 20 degrees at 5
  • From day 24 of the month at 23:00 UTC
  • Clouds: Broken sky at 1067 meters
  • Wind: 40 degrees at 5
  • From day 25 of the month at 06:00 UTC
  • Clouds: Broken sky at 762 meters
  • Wind: 50 degrees at 3
  • From day 25 of the month at 16:00 UTC
  • Clouds: Broken sky at 1067 meters
  • Wind: 50 degrees at 4